sensor_id;sensor_type;location;lat;lon;timestamp;P1;durP1;ratioP1;P2;durP2;ratioP2
7440;SDS011;29616;51.950;8.572;2023-07-20T00:00:45;32.85;;;14.88;;
7440;SDS011;29616;51.950;8.572;2023-07-20T00:05:46;33.42;;;14.27;;
7440;SDS011;29616;51.950;8.572;2023-07-20T00:08:15;38.83;;;15.30;;
7440;SDS011;29616;51.950;8.572;2023-07-20T00:10:44;49.00;;;16.23;;
7440;SDS011;29616;51.950;8.572;2023-07-20T00:13:13;44.10;;;16.55;;
7440;SDS011;29616;51.950;8.572;2023-07-20T00:15:45;40.83;;;16.63;;
7440;SDS011;29616;51.950;8.572;2023-07-20T00:18:13;37.22;;;14.25;;
7440;SDS011;29616;51.950;8.572;2023-07-20T00:20:43;38.60;;;16.67;;
7440;SDS011;29616;51.950;8.572;2023-07-20T00:23:12;36.25;;;17.17;;
7440;SDS011;29616;51.950;8.572;2023-07-20T00:25:41;38.10;;;14.85;;
7440;SDS011;29616;51.950;8.572;2023-07-20T00:30:38;37.47;;;14.43;;
7440;SDS011;29616;51.950;8.572;2023-07-20T00:33:10;49.28;;;15.55;;
7440;SDS011;29616;51.950;8.572;2023-07-20T00:35:39;36.05;;;15.18;;
7440;SDS011;29616;51.950;8.572;2023-07-20T00:40:37;39.05;;;14.88;;
7440;SDS011;29616;51.950;8.572;2023-07-20T00:43:07;42.38;;;15.98;;
7440;SDS011;29616;51.950;8.572;2023-07-20T00:45:37;32.08;;;13.75;;
7440;SDS011;29616;51.950;8.572;2023-07-20T00:48:06;33.63;;;14.50;;
7440;SDS011;29616;51.950;8.572;2023-07-20T00:50:35;46.88;;;15.38;;
7440;SDS011;29616;51.950;8.572;2023-07-20T00:53:04;38.45;;;12.18;;
7440;SDS011;29616;51.950;8.572;2023-07-20T00:55:33;39.75;;;12.77;;
7440;SDS011;29616;51.950;8.572;2023-07-20T00:58:04;53.05;;;17.85;;
7440;SDS011;29616;51.950;8.572;2023-07-20T01:00:34;33.53;;;15.73;;
7440;SDS011;29616;51.950;8.572;2023-07-20T01:03:02;40.50;;;16.58;;
7440;SDS011;29616;51.950;8.572;2023-07-20T01:05:33;39.45;;;15.02;;
7440;SDS011;29616;51.950;8.572;2023-07-20T01:08:11;64.65;;;16.58;;
7440;SDS011;29616;51.950;8.572;2023-07-20T01:10:53;31.92;;;12.90;;
7440;SDS011;29616;51.950;8.572;2023-07-20T01:13:28;38.80;;;13.40;;
7440;SDS011;29616;51.950;8.572;2023-07-20T01:15:59;38.90;;;15.10;;
7440;SDS011;29616;51.950;8.572;2023-07-20T01:18:29;53.05;;;14.52;;
7440;SDS011;29616;51.950;8.572;2023-07-20T01:20:59;37.95;;;14.63;;
7440;SDS011;29616;51.950;8.572;2023-07-20T01:23:40;48.35;;;13.20;;
7440;SDS011;29616;51.950;8.572;2023-07-20T01:26:49;40.03;;;14.00;;
7440;SDS011;29616;51.950;8.572;2023-07-20T01:29:54;37.22;;;15.60;;
7440;SDS011;29616;51.950;8.572;2023-07-20T01:32:55;39.17;;;15.25;;
7440;SDS011;29616;51.950;8.572;2023-07-20T01:35:26;53.13;;;16.33;;
7440;SDS011;29616;51.950;8.572;2023-07-20T01:37:57;53.67;;;14.38;;
7440;SDS011;29616;51.950;8.572;2023-07-20T01:40:27;47.00;;;15.88;;
7440;SDS011;29616;51.950;8.572;2023-07-20T01:42:56;61.28;;;20.88;;
7440;SDS011;29616;51.950;8.572;2023-07-20T01:47:54;58.63;;;20.88;;
7440;SDS011;29616;51.950;8.572;2023-07-20T01:50:23;68.70;;;23.52;;
7440;SDS011;29616;51.950;8.572;2023-07-20T01:52:51;69.75;;;24.35;;
7440;SDS011;29616;51.950;8.572;2023-07-20T01:55:20;69.45;;;24.10;;
7440;SDS011;29616;51.950;8.572;2023-07-20T01:57:48;82.13;;;24.75;;
7440;SDS011;29616;51.950;8.572;2023-07-20T02:00:17;82.93;;;24.38;;
7440;SDS011;29616;51.950;8.572;2023-07-20T02:02:47;68.47;;;24.92;;
7440;SDS011;29616;51.950;8.572;2023-07-20T02:07:47;66.45;;;22.77;;
7440;SDS011;29616;51.950;8.572;2023-07-20T02:10:18;71.93;;;24.00;;
7440;SDS011;29616;51.950;8.572;2023-07-20T02:15:15;64.82;;;20.10;;
7440;SDS011;29616;51.950;8.572;2023-07-20T02:17:45;77.53;;;24.23;;
7440;SDS011;29616;51.950;8.572;2023-07-20T02:20:13;86.57;;;25.48;;
7440;SDS011;29616;51.950;8.572;2023-07-20T02:22:43;88.32;;;25.58;;
7440;SDS011;29616;51.950;8.572;2023-07-20T02:25:13;89.57;;;29.70;;
7440;SDS011;29616;51.950;8.572;2023-07-20T02:27:41;93.75;;;27.92;;
7440;SDS011;29616;51.950;8.572;2023-07-20T02:30:10;87.93;;;28.98;;
7440;SDS011;29616;51.950;8.572;2023-07-20T02:32:40;96.25;;;30.02;;
7440;SDS011;29616;51.950;8.572;2023-07-20T02:35:12;92.45;;;25.35;;
7440;SDS011;29616;51.950;8.572;2023-07-20T02:37:41;143.38;;;31.27;;
7440;SDS011;29616;51.950;8.572;2023-07-20T02:40:11;99.38;;;30.08;;
7440;SDS011;29616;51.950;8.572;2023-07-20T02:42:39;93.18;;;26.80;;
7440;SDS011;29616;51.950;8.572;2023-07-20T02:45:08;112.78;;;32.35;;
7440;SDS011;29616;51.950;8.572;2023-07-20T02:47:37;141.98;;;34.38;;
7440;SDS011;29616;51.950;8.572;2023-07-20T02:50:07;133.10;;;34.13;;
7440;SDS011;29616;51.950;8.572;2023-07-20T02:52:36;137.82;;;35.33;;
7440;SDS011;29616;51.950;8.572;2023-07-20T02:55:04;143.95;;;32.90;;
7440;SDS011;29616;51.950;8.572;2023-07-20T02:57:35;86.50;;;25.75;;
7440;SDS011;29616;51.950;8.572;2023-07-20T03:00:04;114.43;;;31.88;;
7440;SDS011;29616;51.950;8.572;2023-07-20T03:02:34;120.82;;;33.22;;
7440;SDS011;29616;51.950;8.572;2023-07-20T03:05:03;90.72;;;27.58;;
7440;SDS011;29616;51.950;8.572;2023-07-20T03:07:33;95.55;;;29.08;;
7440;SDS011;29616;51.950;8.572;2023-07-20T03:10:02;114.55;;;32.75;;
7440;SDS011;29616;51.950;8.572;2023-07-20T03:12:35;112.03;;;28.63;;
7440;SDS011;29616;51.950;8.572;2023-07-20T03:15:04;130.63;;;32.70;;
7440;SDS011;29616;51.950;8.572;2023-07-20T03:17:35;147.35;;;31.90;;
7440;SDS011;29616;51.950;8.572;2023-07-20T03:20:04;125.20;;;29.02;;
7440;SDS011;29616;51.950;8.572;2023-07-20T03:22:36;138.98;;;35.30;;
7440;SDS011;29616;51.950;8.572;2023-07-20T03:25:05;146.02;;;35.10;;
7440;SDS011;29616;51.950;8.572;2023-07-20T03:27:36;132.45;;;33.72;;
7440;SDS011;29616;51.950;8.572;2023-07-20T03:30:06;133.73;;;31.05;;
7440;SDS011;29616;51.950;8.572;2023-07-20T03:32:37;146.13;;;35.88;;
7440;SDS011;29616;51.950;8.572;2023-07-20T03:35:05;140.32;;;29.58;;
7440;SDS011;29616;51.950;8.572;2023-07-20T03:37:35;128.13;;;32.40;;
7440;SDS011;29616;51.950;8.572;2023-07-20T03:40:05;125.45;;;32.55;;
7440;SDS011;29616;51.950;8.572;2023-07-20T03:42:36;128.38;;;34.03;;
7440;SDS011;29616;51.950;8.572;2023-07-20T03:45:05;113.90;;;33.35;;
7440;SDS011;29616;51.950;8.572;2023-07-20T03:47:36;113.43;;;33.90;;
7440;SDS011;29616;51.950;8.572;2023-07-20T03:50:05;102.10;;;32.33;;
7440;SDS011;29616;51.950;8.572;2023-07-20T03:52:36;115.22;;;31.45;;
7440;SDS011;29616;51.950;8.572;2023-07-20T03:55:05;95.75;;;30.73;;
7440;SDS011;29616;51.950;8.572;2023-07-20T03:57:36;106.97;;;29.48;;
7440;SDS011;29616;51.950;8.572;2023-07-20T04:00:05;86.40;;;27.48;;
7440;SDS011;29616;51.950;8.572;2023-07-20T04:02:38;83.07;;;25.38;;
7440;SDS011;29616;51.950;8.572;2023-07-20T04:05:07;77.68;;;24.10;;
7440;SDS011;29616;51.950;8.572;2023-07-20T04:07:36;73.63;;;25.27;;
7440;SDS011;29616;51.950;8.572;2023-07-20T04:12:34;53.08;;;24.48;;
7440;SDS011;29616;51.950;8.572;2023-07-20T04:15:04;61.90;;;25.42;;
7440;SDS011;29616;51.950;8.572;2023-07-20T04:17:34;42.80;;;18.40;;
7440;SDS011;29616;51.950;8.572;2023-07-20T04:20:03;27.48;;;17.42;;
7440;SDS011;29616;51.950;8.572;2023-07-20T04:22:33;28.20;;;15.20;;
7440;SDS011;29616;51.950;8.572;2023-07-20T04:25:03;28.55;;;13.55;;
7440;SDS011;29616;51.950;8.572;2023-07-20T04:27:32;17.00;;;9.85;;
7440;SDS011;29616;51.950;8.572;2023-07-20T04:30:02;18.35;;;9.27;;
7440;SDS011;29616;51.950;8.572;2023-07-20T04:32:34;17.67;;;9.57;;
7440;SDS011;29616;51.950;8.572;2023-07-20T04:35:05;15.55;;;8.68;;
7440;SDS011;29616;51.950;8.572;2023-07-20T04:37:37;15.55;;;7.70;;
7440;SDS011;29616;51.950;8.572;2023-07-20T04:40:15;13.23;;;7.55;;
7440;SDS011;29616;51.950;8.572;2023-07-20T04:42:44;16.13;;;7.85;;
7440;SDS011;29616;51.950;8.572;2023-07-20T04:45:14;16.27;;;7.55;;
7440;SDS011;29616;51.950;8.572;2023-07-20T04:47:45;15.27;;;8.45;;
7440;SDS011;29616;51.950;8.572;2023-07-20T04:50:14;24.27;;;13.55;;
7440;SDS011;29616;51.950;8.572;2023-07-20T04:52:43;18.33;;;10.07;;
7440;SDS011;29616;51.950;8.572;2023-07-20T04:55:16;16.48;;;8.48;;
7440;SDS011;29616;51.950;8.572;2023-07-20T04:57:44;15.30;;;9.40;;
7440;SDS011;29616;51.950;8.572;2023-07-20T05:00:14;18.55;;;10.00;;
7440;SDS011;29616;51.950;8.572;2023-07-20T05:02:44;18.52;;;8.88;;
7440;SDS011;29616;51.950;8.572;2023-07-20T05:05:15;15.77;;;9.68;;
7440;SDS011;29616;51.950;8.572;2023-07-20T05:07:43;20.85;;;12.15;;
7440;SDS011;29616;51.950;8.572;2023-07-20T05:10:12;18.10;;;9.27;;
7440;SDS011;29616;51.950;8.572;2023-07-20T05:12:41;20.75;;;10.30;;
7440;SDS011;29616;51.950;8.572;2023-07-20T05:15:09;18.92;;;8.90;;
7440;SDS011;29616;51.950;8.572;2023-07-20T05:17:40;16.00;;;9.38;;
7440;SDS011;29616;51.950;8.572;2023-07-20T05:20:09;15.52;;;9.25;;
7440;SDS011;29616;51.950;8.572;2023-07-20T05:22:39;13.82;;;7.85;;
7440;SDS011;29616;51.950;8.572;2023-07-20T05:25:08;14.55;;;6.65;;
7440;SDS011;29616;51.950;8.572;2023-07-20T05:27:38;10.88;;;6.80;;
7440;SDS011;29616;51.950;8.572;2023-07-20T05:30:10;8.55;;;6.38;;
7440;SDS011;29616;51.950;8.572;2023-07-20T05:32:40;7.13;;;5.68;;
7440;SDS011;29616;51.950;8.572;2023-07-20T05:35:09;9.70;;;6.63;;
7440;SDS011;29616;51.950;8.572;2023-07-20T05:37:38;6.40;;;4.28;;
7440;SDS011;29616;51.950;8.572;2023-07-20T05:40:07;7.50;;;4.85;;
7440;SDS011;29616;51.950;8.572;2023-07-20T05:42:38;10.23;;;7.18;;
7440;SDS011;29616;51.950;8.572;2023-07-20T05:45:07;10.30;;;6.30;;
7440;SDS011;29616;51.950;8.572;2023-07-20T05:47:37;11.32;;;7.38;;
7440;SDS011;29616;51.950;8.572;2023-07-20T05:50:08;7.35;;;6.07;;
7440;SDS011;29616;51.950;8.572;2023-07-20T05:52:37;6.40;;;5.50;;
7440;SDS011;29616;51.950;8.572;2023-07-20T05:55:06;6.43;;;5.00;;
7440;SDS011;29616;51.950;8.572;2023-07-20T05:57:35;7.80;;;3.13;;
7440;SDS011;29616;51.950;8.572;2023-07-20T06:00:09;5.82;;;2.90;;
7440;SDS011;29616;51.950;8.572;2023-07-20T06:02:41;7.30;;;4.00;;
7440;SDS011;29616;51.950;8.572;2023-07-20T06:05:12;4.55;;;3.65;;
7440;SDS011;29616;51.950;8.572;2023-07-20T06:07:41;3.88;;;3.35;;
7440;SDS011;29616;51.950;8.572;2023-07-20T06:10:10;5.43;;;5.03;;
7440;SDS011;29616;51.950;8.572;2023-07-20T06:12:38;5.20;;;4.78;;
7440;SDS011;29616;51.950;8.572;2023-07-20T06:15:23;5.32;;;3.90;;
7440;SDS011;29616;51.950;8.572;2023-07-20T06:17:54;3.40;;;2.53;;
7440;SDS011;29616;51.950;8.572;2023-07-20T06:20:26;4.82;;;2.83;;
7440;SDS011;29616;51.950;8.572;2023-07-20T06:22:54;4.15;;;2.72;;
7440;SDS011;29616;51.950;8.572;2023-07-20T06:25:23;3.63;;;3.17;;
7440;SDS011;29616;51.950;8.572;2023-07-20T06:27:52;3.20;;;2.35;;
7440;SDS011;29616;51.950;8.572;2023-07-20T06:30:22;3.08;;;2.72;;
7440;SDS011;29616;51.950;8.572;2023-07-20T06:32:51;4.78;;;3.10;;
7440;SDS011;29616;51.950;8.572;2023-07-20T06:35:20;3.35;;;3.00;;
7440;SDS011;29616;51.950;8.572;2023-07-20T06:37:50;3.38;;;2.17;;
7440;SDS011;29616;51.950;8.572;2023-07-20T06:40:19;3.50;;;2.90;;
7440;SDS011;29616;51.950;8.572;2023-07-20T06:42:51;5.20;;;3.75;;
7440;SDS011;29616;51.950;8.572;2023-07-20T06:45:23;4.03;;;2.78;;
7440;SDS011;29616;51.950;8.572;2023-07-20T06:47:52;4.03;;;3.70;;
7440;SDS011;29616;51.950;8.572;2023-07-20T06:50:21;5.05;;;3.20;;
7440;SDS011;29616;51.950;8.572;2023-07-20T06:52:54;4.20;;;2.92;;
7440;SDS011;29616;51.950;8.572;2023-07-20T06:55:24;3.15;;;2.45;;
7440;SDS011;29616;51.950;8.572;2023-07-20T06:57:58;3.13;;;2.55;;
7440;SDS011;29616;51.950;8.572;2023-07-20T07:00:26;6.10;;;4.20;;
7440;SDS011;29616;51.950;8.572;2023-07-20T07:02:57;3.90;;;2.78;;
7440;SDS011;29616;51.950;8.572;2023-07-20T07:05:26;4.72;;;1.23;;
7440;SDS011;29616;51.950;8.572;2023-07-20T07:08:04;3.00;;;2.67;;
7440;SDS011;29616;51.950;8.572;2023-07-20T07:10:34;5.13;;;3.00;;
7440;SDS011;29616;51.950;8.572;2023-07-20T07:13:04;3.20;;;2.50;;
7440;SDS011;29616;51.950;8.572;2023-07-20T07:15:33;3.20;;;2.45;;
7440;SDS011;29616;51.950;8.572;2023-07-20T07:18:04;1.60;;;0.52;;
7440;SDS011;29616;51.950;8.572;2023-07-20T07:20:33;2.25;;;2.05;;
7440;SDS011;29616;51.950;8.572;2023-07-20T07:23:01;3.60;;;2.67;;
7440;SDS011;29616;51.950;8.572;2023-07-20T07:25:31;3.25;;;2.35;;
7440;SDS011;29616;51.950;8.572;2023-07-20T07:28:00;2.80;;;2.47;;
7440;SDS011;29616;51.950;8.572;2023-07-20T07:30:29;4.00;;;2.92;;
7440;SDS011;29616;51.950;8.572;2023-07-20T07:33:00;2.92;;;2.28;;
7440;SDS011;29616;51.950;8.572;2023-07-20T07:35:28;2.97;;;2.67;;
7440;SDS011;29616;51.950;8.572;2023-07-20T07:37:57;3.05;;;2.05;;
7440;SDS011;29616;51.950;8.572;2023-07-20T07:40:40;3.50;;;2.85;;
7440;SDS011;29616;51.950;8.572;2023-07-20T07:43:09;4.15;;;2.72;;
7440;SDS011;29616;51.950;8.572;2023-07-20T07:45:38;3.08;;;2.08;;
7440;SDS011;29616;51.950;8.572;2023-07-20T07:48:08;2.60;;;2.33;;
7440;SDS011;29616;51.950;8.572;2023-07-20T07:50:37;3.45;;;1.95;;
7440;SDS011;29616;51.950;8.572;2023-07-20T07:53:07;3.05;;;2.70;;
7440;SDS011;29616;51.950;8.572;2023-07-20T07:55:37;3.08;;;2.88;;
7440;SDS011;29616;51.950;8.572;2023-07-20T07:58:07;3.50;;;2.45;;
7440;SDS011;29616;51.950;8.572;2023-07-20T08:00:39;2.30;;;2.10;;
7440;SDS011;29616;51.950;8.572;2023-07-20T08:03:09;1.65;;;0.90;;
7440;SDS011;29616;51.950;8.572;2023-07-20T08:05:38;2.42;;;1.77;;
7440;SDS011;29616;51.950;8.572;2023-07-20T08:08:07;2.40;;;2.20;;
7440;SDS011;29616;51.950;8.572;2023-07-20T08:10:36;3.78;;;2.22;;
7440;SDS011;29616;51.950;8.572;2023-07-20T08:13:06;3.00;;;2.65;;
7440;SDS011;29616;51.950;8.572;2023-07-20T08:15:35;3.20;;;1.85;;
7440;SDS011;29616;51.950;8.572;2023-07-20T08:18:04;1.98;;;1.88;;
7440;SDS011;29616;51.950;8.572;2023-07-20T08:20:34;2.47;;;1.52;;
7440;SDS011;29616;51.950;8.572;2023-07-20T08:23:03;3.30;;;2.13;;
7440;SDS011;29616;51.950;8.572;2023-07-20T08:25:32;2.55;;;1.65;;
7440;SDS011;29616;51.950;8.572;2023-07-20T08:28:00;2.63;;;1.90;;
7440;SDS011;29616;51.950;8.572;2023-07-20T08:30:37;2.03;;;1.67;;
7440;SDS011;29616;51.950;8.572;2023-07-20T08:33:09;3.60;;;3.40;;
7440;SDS011;29616;51.950;8.572;2023-07-20T08:35:38;2.17;;;1.98;;
7440;SDS011;29616;51.950;8.572;2023-07-20T08:38:07;2.53;;;2.33;;
7440;SDS011;29616;51.950;8.572;2023-07-20T08:40:39;2.25;;;2.05;;
7440;SDS011;29616;51.950;8.572;2023-07-20T08:43:10;2.08;;;1.65;;
7440;SDS011;29616;51.950;8.572;2023-07-20T08:45:40;1.95;;;1.75;;
7440;SDS011;29616;51.950;8.572;2023-07-20T08:48:09;2.30;;;1.77;;
7440;SDS011;29616;51.950;8.572;2023-07-20T08:50:39;2.78;;;2.58;;
7440;SDS011;29616;51.950;8.572;2023-07-20T08:53:09;2.22;;;2.03;;
7440;SDS011;29616;51.950;8.572;2023-07-20T08:55:40;2.63;;;2.42;;
7440;SDS011;29616;51.950;8.572;2023-07-20T08:58:11;2.63;;;2.47;;
7440;SDS011;29616;51.950;8.572;2023-07-20T09:00:43;2.22;;;2.08;;
7440;SDS011;29616;51.950;8.572;2023-07-20T09:03:12;2.45;;;2.17;;
7440;SDS011;29616;51.950;8.572;2023-07-20T09:05:43;2.42;;;2.22;;
7440;SDS011;29616;51.950;8.572;2023-07-20T09:08:12;4.03;;;3.55;;
7440;SDS011;29616;51.950;8.572;2023-07-20T09:10:41;3.70;;;2.17;;
7440;SDS011;29616;51.950;8.572;2023-07-20T09:13:09;2.05;;;0.88;;
7440;SDS011;29616;51.950;8.572;2023-07-20T09:15:46;1.70;;;1.60;;
7440;SDS011;29616;51.950;8.572;2023-07-20T09:20:51;1.70;;;1.45;;
7440;SDS011;29616;51.950;8.572;2023-07-20T09:23:21;4.57;;;2.08;;
7440;SDS011;29616;51.950;8.572;2023-07-20T09:25:59;2.45;;;2.25;;
7440;SDS011;29616;51.950;8.572;2023-07-20T09:28:28;2.42;;;2.22;;
7440;SDS011;29616;51.950;8.572;2023-07-20T09:30:58;2.67;;;2.28;;
7440;SDS011;29616;51.950;8.572;2023-07-20T09:33:44;2.45;;;2.25;;
7440;SDS011;29616;51.950;8.572;2023-07-20T09:36:16;1.65;;;1.55;;
7440;SDS011;29616;51.950;8.572;2023-07-20T09:39:04;2.20;;;2.00;;
7440;SDS011;29616;51.950;8.572;2023-07-20T09:41:40;2.17;;;2.00;;
7440;SDS011;29616;51.950;8.572;2023-07-20T09:44:13;5.03;;;2.08;;
7440;SDS011;29616;51.950;8.572;2023-07-20T09:46:47;1.85;;;1.75;;
7440;SDS011;29616;51.950;8.572;2023-07-20T09:49:20;3.17;;;2.10;;
7440;SDS011;29616;51.950;8.572;2023-07-20T09:51:51;2.10;;;2.00;;
7440;SDS011;29616;51.950;8.572;2023-07-20T09:54:22;3.13;;;2.00;;
7440;SDS011;29616;51.950;8.572;2023-07-20T09:56:51;2.33;;;1.88;;
7440;SDS011;29616;51.950;8.572;2023-07-20T09:59:21;1.42;;;0.40;;
7440;SDS011;29616;51.950;8.572;2023-07-20T10:01:50;2.67;;;2.00;;
7440;SDS011;29616;51.950;8.572;2023-07-20T10:04:24;8.38;;;6.50;;
7440;SDS011;29616;51.950;8.572;2023-07-20T10:06:54;117.03;;;50.88;;
7440;SDS011;29616;51.950;8.572;2023-07-20T10:29:55;52.45;;;28.98;;
7440;SDS011;29616;51.950;8.572;2023-07-20T10:32:27;1.80;;;0.70;;
7440;SDS011;29616;51.950;8.572;2023-07-20T10:34:57;2.88;;;2.20;;
7440;SDS011;29616;51.950;8.572;2023-07-20T10:40:27;2.33;;;2.13;;
7440;SDS011;29616;51.950;8.572;2023-07-20T10:43:01;2.67;;;2.47;;
7440;SDS011;29616;51.950;8.572;2023-07-20T10:45:33;1.02;;;0.20;;
7440;SDS011;29616;51.950;8.572;2023-07-20T10:48:15;1.23;;;0.40;;
7440;SDS011;29616;51.950;8.572;2023-07-20T10:50:46;1.10;;;0.28;;
7440;SDS011;29616;51.950;8.572;2023-07-20T10:53:42;1.77;;;0.20;;
7440;SDS011;29616;51.950;8.572;2023-07-20T10:56:11;1.67;;;0.13;;
7440;SDS011;29616;51.950;8.572;2023-07-20T10:58:41;0.90;;;0.43;;
7440;SDS011;29616;51.950;8.572;2023-07-20T11:01:12;2.30;;;2.13;;
7440;SDS011;29616;51.950;8.572;2023-07-20T11:03:48;2.30;;;1.95;;
7440;SDS011;29616;51.950;8.572;2023-07-20T11:06:32;2.35;;;2.05;;
7440;SDS011;29616;51.950;8.572;2023-07-20T11:09:05;0.88;;;0.30;;
7440;SDS011;29616;51.950;8.572;2023-07-20T11:11:38;3.42;;;2.45;;
7440;SDS011;29616;51.950;8.572;2023-07-20T11:14:09;2.53;;;2.00;;
7440;SDS011;29616;51.950;8.572;2023-07-20T11:16:47;2.42;;;1.77;;
7440;SDS011;29616;51.950;8.572;2023-07-20T11:19:19;2.47;;;2.10;;
7440;SDS011;29616;51.950;8.572;2023-07-20T11:21:53;3.00;;;2.75;;
7440;SDS011;29616;51.950;8.572;2023-07-20T11:24:29;1.80;;;1.35;;
7440;SDS011;29616;51.950;8.572;2023-07-20T11:26:59;4.13;;;2.70;;
7440;SDS011;29616;51.950;8.572;2023-07-20T11:29:28;2.63;;;2.22;;
7440;SDS011;29616;51.950;8.572;2023-07-20T11:32:00;3.05;;;2.83;;
7440;SDS011;29616;51.950;8.572;2023-07-20T11:34:33;2.30;;;2.10;;
7440;SDS011;29616;51.950;8.572;2023-07-20T11:37:03;2.08;;;0.73;;
7440;SDS011;29616;51.950;8.572;2023-07-20T11:39:36;3.00;;;2.80;;
7440;SDS011;29616;51.950;8.572;2023-07-20T11:42:05;3.03;;;2.42;;
7440;SDS011;29616;51.950;8.572;2023-07-20T11:44:34;3.28;;;2.55;;
7440;SDS011;29616;51.950;8.572;2023-07-20T11:47:02;2.83;;;2.50;;
7440;SDS011;29616;51.950;8.572;2023-07-20T11:49:38;3.22;;;2.67;;
7440;SDS011;29616;51.950;8.572;2023-07-20T11:52:10;2.70;;;2.50;;
7440;SDS011;29616;51.950;8.572;2023-07-20T11:54:42;2.90;;;2.70;;
7440;SDS011;29616;51.950;8.572;2023-07-20T11:57:15;3.38;;;3.00;;
7440;SDS011;29616;51.950;8.572;2023-07-20T11:59:52;2.83;;;2.63;;
7440;SDS011;29616;51.950;8.572;2023-07-20T12:02:24;3.40;;;2.70;;
7440;SDS011;29616;51.950;8.572;2023-07-20T12:04:57;3.25;;;2.95;;
7440;SDS011;29616;51.950;8.572;2023-07-20T12:07:26;3.78;;;2.95;;
7440;SDS011;29616;51.950;8.572;2023-07-20T12:10:03;3.65;;;3.13;;
7440;SDS011;29616;51.950;8.572;2023-07-20T12:12:33;3.40;;;3.08;;
7440;SDS011;29616;51.950;8.572;2023-07-20T12:15:13;3.85;;;2.40;;
7440;SDS011;29616;51.950;8.572;2023-07-20T12:17:43;3.58;;;2.90;;
7440;SDS011;29616;51.950;8.572;2023-07-20T12:20:13;3.63;;;3.33;;
7440;SDS011;29616;51.950;8.572;2023-07-20T12:22:55;3.47;;;2.97;;
7440;SDS011;29616;51.950;8.572;2023-07-20T12:25:38;3.25;;;3.05;;
7440;SDS011;29616;51.950;8.572;2023-07-20T12:28:08;4.82;;;3.25;;
7440;SDS011;29616;51.950;8.572;2023-07-20T12:30:38;2.72;;;2.13;;
7440;SDS011;29616;51.950;8.572;2023-07-20T12:33:07;3.30;;;3.05;;
7440;SDS011;29616;51.950;8.572;2023-07-20T12:35:38;2.13;;;1.10;;
7440;SDS011;29616;51.950;8.572;2023-07-20T12:38:06;3.45;;;3.10;;
7440;SDS011;29616;51.950;8.572;2023-07-20T12:40:35;3.42;;;3.15;;
7440;SDS011;29616;51.950;8.572;2023-07-20T12:43:03;3.90;;;2.88;;
7440;SDS011;29616;51.950;8.572;2023-07-20T12:45:32;4.53;;;1.33;;
7440;SDS011;29616;51.950;8.572;2023-07-20T12:48:01;3.00;;;2.70;;
7440;SDS011;29616;51.950;8.572;2023-07-20T12:50:30;3.55;;;3.25;;
7440;SDS011;29616;51.950;8.572;2023-07-20T12:53:00;2.08;;;1.27;;
7440;SDS011;29616;51.950;8.572;2023-07-20T12:55:30;2.58;;;1.08;;
7440;SDS011;29616;51.950;8.572;2023-07-20T12:57:59;2.75;;;2.53;;
7440;SDS011;29616;51.950;8.572;2023-07-20T13:00:27;2.58;;;2.35;;
7440;SDS011;29616;51.950;8.572;2023-07-20T13:02:56;3.05;;;2.85;;
7440;SDS011;29616;51.950;8.572;2023-07-20T13:05:27;3.15;;;2.92;;
7440;SDS011;29616;51.950;8.572;2023-07-20T13:08:00;4.22;;;3.83;;
7440;SDS011;29616;51.950;8.572;2023-07-20T13:10:32;195.52;;;84.95;;
7440;SDS011;29616;51.950;8.572;2023-07-20T13:13:00;64.72;;;39.83;;
7440;SDS011;29616;51.950;8.572;2023-07-20T13:15:29;39.50;;;28.08;;
7440;SDS011;29616;51.950;8.572;2023-07-20T13:17:59;221.48;;;104.47;;
7440;SDS011;29616;51.950;8.572;2023-07-20T13:20:27;165.68;;;74.82;;
7440;SDS011;29616;51.950;8.572;2023-07-20T13:22:56;119.82;;;75.40;;
7440;SDS011;29616;51.950;8.572;2023-07-20T13:25:26;83.82;;;54.20;;
7440;SDS011;29616;51.950;8.572;2023-07-20T13:27:55;246.57;;;114.35;;
7440;SDS011;29616;51.950;8.572;2023-07-20T13:30:24;157.57;;;82.25;;
7440;SDS011;29616;51.950;8.572;2023-07-20T13:32:53;265.73;;;124.32;;
7440;SDS011;29616;51.950;8.572;2023-07-20T13:35:22;255.10;;;117.40;;
7440;SDS011;29616;51.950;8.572;2023-07-20T13:37:50;182.55;;;88.70;;
7440;SDS011;29616;51.950;8.572;2023-07-20T13:40:19;12.93;;;5.45;;
7440;SDS011;29616;51.950;8.572;2023-07-20T13:42:50;26.25;;;20.58;;
7440;SDS011;29616;51.950;8.572;2023-07-20T13:45:19;67.82;;;56.20;;
7440;SDS011;29616;51.950;8.572;2023-07-20T13:47:49;399.42;;;160.18;;
7440;SDS011;29616;51.950;8.572;2023-07-20T13:50:19;36.72;;;19.65;;
7440;SDS011;29616;51.950;8.572;2023-07-20T13:52:52;179.88;;;99.40;;
7440;SDS011;29616;51.950;8.572;2023-07-20T13:55:40;82.63;;;46.45;;
7440;SDS011;29616;51.950;8.572;2023-07-20T13:58:13;440.33;;;170.98;;
7440;SDS011;29616;51.950;8.572;2023-07-20T14:00:41;372.27;;;154.25;;
7440;SDS011;29616;51.950;8.572;2023-07-20T14:03:10;3.92;;;3.55;;
7440;SDS011;29616;51.950;8.572;2023-07-20T14:05:41;1.48;;;0.40;;
7440;SDS011;29616;51.950;8.572;2023-07-20T14:08:13;2.38;;;1.88;;
7440;SDS011;29616;51.950;8.572;2023-07-20T14:10:42;284.65;;;121.18;;
7440;SDS011;29616;51.950;8.572;2023-07-20T14:13:15;161.85;;;86.97;;
7440;SDS011;29616;51.950;8.572;2023-07-20T14:15:43;170.48;;;87.57;;
7440;SDS011;29616;51.950;8.572;2023-07-20T14:18:12;101.55;;;57.92;;
7440;SDS011;29616;51.950;8.572;2023-07-20T14:20:43;359.27;;;144.85;;
7440;SDS011;29616;51.950;8.572;2023-07-20T14:23:12;370.65;;;152.70;;
7440;SDS011;29616;51.950;8.572;2023-07-20T14:25:40;0.63;;;0.13;;
7440;SDS011;29616;51.950;8.572;2023-07-20T14:28:09;159.50;;;76.97;;
7440;SDS011;29616;51.950;8.572;2023-07-20T14:30:39;92.63;;;60.35;;
7440;SDS011;29616;51.950;8.572;2023-07-20T14:33:08;73.25;;;45.85;;
7440;SDS011;29616;51.950;8.572;2023-07-20T14:35:37;4.25;;;3.72;;
7440;SDS011;29616;51.950;8.572;2023-07-20T14:38:06;2.88;;;1.00;;
7440;SDS011;29616;51.950;8.572;2023-07-20T14:40:34;1.67;;;1.58;;
7440;SDS011;29616;51.950;8.572;2023-07-20T14:43:03;1.75;;;1.65;;
7440;SDS011;29616;51.950;8.572;2023-07-20T14:45:31;1.95;;;1.85;;
7440;SDS011;29616;51.950;8.572;2023-07-20T14:48:02;1.65;;;1.55;;
7440;SDS011;29616;51.950;8.572;2023-07-20T14:50:30;2.13;;;1.92;;
7440;SDS011;29616;51.950;8.572;2023-07-20T14:52:59;1.13;;;0.20;;
7440;SDS011;29616;51.950;8.572;2023-07-20T14:55:32;2.72;;;1.08;;
7440;SDS011;29616;51.950;8.572;2023-07-20T14:58:01;2.40;;;1.40;;
7440;SDS011;29616;51.950;8.572;2023-07-20T15:00:29;30.75;;;20.73;;
7440;SDS011;29616;51.950;8.572;2023-07-20T15:02:58;115.57;;;53.40;;
7440;SDS011;29616;51.950;8.572;2023-07-20T15:05:28;154.73;;;75.55;;
7440;SDS011;29616;51.950;8.572;2023-07-20T15:07:57;49.65;;;26.60;;
7440;SDS011;29616;51.950;8.572;2023-07-20T15:10:26;83.32;;;51.33;;
7440;SDS011;29616;51.950;8.572;2023-07-20T15:12:54;152.30;;;78.38;;
7440;SDS011;29616;51.950;8.572;2023-07-20T15:15:23;87.38;;;45.75;;
7440;SDS011;29616;51.950;8.572;2023-07-20T15:17:52;2.42;;;2.20;;
7440;SDS011;29616;51.950;8.572;2023-07-20T15:20:20;2.75;;;2.08;;
7440;SDS011;29616;51.950;8.572;2023-07-20T15:22:51;2.15;;;0.20;;
7440;SDS011;29616;51.950;8.572;2023-07-20T15:25:19;2.90;;;2.70;;
7440;SDS011;29616;51.950;8.572;2023-07-20T15:27:48;2.05;;;1.85;;
7440;SDS011;29616;51.950;8.572;2023-07-20T15:30:18;3.20;;;2.28;;
7440;SDS011;29616;51.950;8.572;2023-07-20T15:32:51;2.75;;;2.55;;
7440;SDS011;29616;51.950;8.572;2023-07-20T15:35:22;1.92;;;1.63;;
7440;SDS011;29616;51.950;8.572;2023-07-20T15:37:52;1.75;;;1.45;;
7440;SDS011;29616;51.950;8.572;2023-07-20T15:40:21;2.58;;;1.95;;
7440;SDS011;29616;51.950;8.572;2023-07-20T15:42:49;2.38;;;1.88;;
7440;SDS011;29616;51.950;8.572;2023-07-20T15:45:19;1.67;;;1.52;;
7440;SDS011;29616;51.950;8.572;2023-07-20T15:47:49;2.17;;;1.98;;
7440;SDS011;29616;51.950;8.572;2023-07-20T15:50:18;3.55;;;3.33;;
7440;SDS011;29616;51.950;8.572;2023-07-20T15:52:49;3.58;;;2.08;;